Time;durP1;ratioP1;P1;durP2;ratioP2;P2;SDS_P1;SDS_P2;PMS_P1;PMS_P2;Temp;Humidity;BMP_temperature;BMP_pressure;BME280_temperature;BME280_humidity;BME280_pressure;Samples;Min_cycle;Max_cycle;Signal;HPM_P1;HPM_P2
2023/01/02 00:02:13;;;;;;;10.23;5.03;;;11.40;99.90;;;;;;5034439;28;20955;-86
2023/01/02 00:04:39;;;;;;;9.75;4.95;;;11.30;99.90;;;;;;5039547;28;20398;-87
2023/01/02 00:07:05;;;;;;;9.50;4.77;;;11.40;99.90;;;;;;5021956;28;20452;-86
2023/01/02 00:09:32;;;;;;;8.68;4.95;;;11.40;99.90;;;;;;5042205;28;20571;-86
2023/01/02 00:11:58;;;;;;;12.27;5.00;;;11.50;99.90;;;;;;5025504;28;20870;-85
2023/01/02 00:14:24;;;;;;;8.90;4.93;;;11.40;99.90;;;;;;5023016;28;20467;-86
2023/01/02 00:16:50;;;;;;;8.65;5.13;;;11.50;99.90;;;;;;5041719;28;20426;-85
2023/01/02 00:19:16;;;;;;;10.05;5.30;;;11.40;99.90;;;;;;5021304;28;20766;-86
2023/01/02 00:21:41;;;;;;;10.35;4.95;;;11.40;99.90;;;;;;5022626;28;20381;-88
2023/01/02 00:24:07;;;;;;;10.00;5.03;;;11.50;99.90;;;;;;5036928;28;20407;-87
2023/01/02 00:26:33;;;;;;;11.20;4.82;;;11.40;99.90;;;;;;5042300;28;20412;-87
2023/01/02 00:29:00;;;;;;;9.37;4.83;;;11.40;99.90;;;;;;5039345;28;20759;-86
2023/01/02 00:31:26;;;;;;;10.77;4.75;;;11.40;99.90;;;;;;5037289;28;20478;-86
2023/01/02 00:33:51;;;;;;;10.18;4.90;;;11.40;99.90;;;;;;5018104;28;20466;-88
2023/01/02 00:36:17;;;;;;;8.73;5.13;;;11.80;99.90;;;;;;5017717;28;20405;-87
2023/01/02 00:38:43;;;;;;;8.77;5.05;;;11.50;99.90;;;;;;5040012;28;20390;-86
2023/01/02 00:41:09;;;;;;;8.55;4.80;;;11.30;99.90;;;;;;5040850;28;20409;-86
2023/01/02 00:43:35;;;;;;;9.00;5.05;;;11.30;99.90;;;;;;5036158;28;20518;-86
2023/01/02 00:46:01;;;;;;;8.75;4.70;;;11.30;99.90;;;;;;5041974;28;20433;-86
2023/01/02 00:48:27;;;;;;;9.40;4.93;;;11.20;99.90;;;;;;5044484;28;20800;-87
2023/01/02 00:50:53;;;;;;;8.60;4.65;;;11.10;99.90;;;;;;5025859;28;20448;-87
2023/01/02 00:53:19;;;;;;;9.63;5.33;;;11.10;99.90;;;;;;5041007;28;20370;-86
2023/01/02 00:55:45;;;;;;;11.55;5.07;;;11.00;99.90;;;;;;5022838;28;20887;-87
2023/01/02 00:58:11;;;;;;;8.23;4.80;;;11.00;99.90;;;;;;5022832;28;20393;-86
2023/01/02 01:00:37;;;;;;;9.57;5.00;;;11.00;99.90;;;;;;5020876;28;20478;-86
2023/01/02 01:03:03;;;;;;;10.93;5.47;;;11.00;99.90;;;;;;5024870;28;20473;-86
2023/01/02 01:05:29;;;;;;;10.30;5.25;;;11.00;99.90;;;;;;5039442;28;20480;-86
2023/01/02 01:07:56;;;;;;;10.32;5.07;;;11.20;99.90;;;;;;5039671;28;20814;-85
2023/01/02 01:10:23;;;;;;;10.73;4.83;;;11.30;99.90;;;;;;5039480;28;20383;-86
2023/01/02 01:12:49;;;;;;;6.53;4.90;;;11.40;99.90;;;;;;5310446;22;20419;-85
2023/01/02 01:15:15;;;;;;;10.15;5.28;;;11.50;99.90;;;;;;5024517;28;20382;-85
2023/01/02 01:17:41;;;;;;;12.20;5.67;;;11.60;99.90;;;;;;5036538;28;20418;-84
2023/01/02 01:20:07;;;;;;;11.35;5.55;;;11.40;99.90;;;;;;5020642;28;20456;-85
2023/01/02 01:22:33;;;;;;;11.77;5.60;;;11.50;99.90;;;;;;5047728;28;20380;-86
2023/01/02 01:24:59;;;;;;;9.63;5.68;;;11.60;99.90;;;;;;5048642;28;20376;-86
2023/01/02 01:27:24;;;;;;;10.45;5.88;;;11.60;99.90;;;;;;5048457;28;20410;-85
2023/01/02 01:29:50;;;;;;;9.53;5.83;;;12.20;99.90;;;;;;5044458;28;20845;-86
2023/01/02 01:32:16;;;;;;;11.50;6.60;;;11.60;99.90;;;;;;5028740;28;20427;-85
2023/01/02 01:34:42;;;;;;;10.10;6.45;;;11.50;99.90;;;;;;5028761;28;20395;-86
2023/01/02 01:37:08;;;;;;;13.48;6.80;;;11.60;99.90;;;;;;5047071;28;20438;-85
2023/01/02 01:39:33;;;;;;;12.52;8.27;;;11.70;99.90;;;;;;5028455;28;20380;-85
2023/01/02 01:42:00;;;;;;;10.87;7.50;;;11.80;99.90;;;;;;5045458;28;20384;-86
2023/01/02 01:44:46;;;;;;;12.70;7.80;;;11.80;99.90;;;;;;5029451;28;20398;-86
2023/01/02 01:47:20;;;;;;;11.52;7.70;;;11.70;99.90;;;;;;5030543;28;20497;-85
2023/01/02 01:49:46;;;;;;;10.60;7.43;;;11.80;99.90;;;;;;5052690;28;20514;-85
2023/01/02 01:52:17;;;;;;;11.90;7.22;;;11.80;99.90;;;;;;5048305;28;20383;-84
2023/01/02 01:54:55;;;;;;;14.40;8.80;;;11.70;99.90;;;;;;5048633;28;20390;-85
2023/01/02 01:57:34;;;;;;;16.25;10.43;;;11.70;99.90;;;;;;5030179;28;20395;-84
2023/01/02 02:00:01;;;;;;;15.30;10.13;;;11.60;99.90;;;;;;5047947;28;20470;-85
2023/01/02 02:02:28;;;;;;;15.05;10.82;;;11.60;99.90;;;;;;5047336;28;20896;-85
2023/01/02 02:04:55;;;;;;;19.50;11.63;;;11.60;99.90;;;;;;5047927;28;21179;-85
2023/01/02 02:07:21;;;;;;;16.13;10.80;;;11.70;99.90;;;;;;5047992;28;20924;-85
2023/01/02 02:09:52;;;;;;;18.95;11.25;;;11.60;99.90;;;;;;5030099;28;20383;-85
2023/01/02 02:12:18;;;;;;;20.45;11.30;;;11.50;99.90;;;;;;5030007;28;20906;-85
2023/01/02 02:14:43;;;;;;;20.88;11.73;;;11.40;99.90;;;;;;5048092;28;20372;-84
2023/01/02 02:17:43;;;;;;;20.90;12.35;;;11.30;99.90;;;;;;5048210;28;20693;-84
2023/01/02 02:20:53;;;;;;;19.23;11.18;;;11.30;99.90;;;;;;5030343;28;20391;-85
2023/01/02 02:23:53;;;;;;;18.73;11.40;;;11.30;99.90;;;;;;5030572;28;20384;-84
2023/01/02 02:27:06;;;;;;;15.57;10.00;;;11.40;99.90;;;;;;5048098;28;20395;-84
2023/01/02 02:29:50;;;;;;;15.38;9.30;;;11.50;99.90;;;;;;5003488;28;20411;-85
2023/01/02 02:32:24;;;;;;;15.02;9.05;;;11.50;99.90;;;;;;5029614;28;20372;-85
2023/01/02 02:35:04;;;;;;;14.37;8.53;;;11.70;99.90;;;;;;5048255;28;20396;-84
2023/01/02 02:37:35;;;;;;;12.52;8.15;;;11.80;99.90;;;;;;5030429;28;20384;-85
2023/01/02 02:40:15;;;;;;;15.40;8.40;;;11.90;99.90;;;;;;5048255;28;20475;-85
2023/01/02 02:43:08;;;;;;;13.70;8.40;;;11.90;99.90;;;;;;5028722;28;20434;-86
2023/01/02 02:45:46;;;;;;;14.32;7.75;;;12.00;99.90;;;;;;5047974;28;20433;-86
2023/01/02 02:48:25;;;;;;;12.67;7.43;;;12.00;99.90;;;;;;5047969;28;20453;-85
2023/01/02 02:50:56;;;;;;;15.33;7.30;;;12.00;99.90;;;;;;5047541;28;20478;-85
2023/01/02 02:53:24;;;;;;;11.43;6.28;;;12.10;99.90;;;;;;5029526;28;20878;-85
2023/01/02 02:55:57;;;;;;;10.90;6.05;;;12.10;99.90;;;;;;5030017;28;21102;-84
2023/01/02 02:58:24;;;;;;;9.55;5.53;;;12.30;99.90;;;;;;5048001;28;20384;-85
2023/01/02 03:01:03;;;;;;;9.25;5.63;;;12.30;99.90;;;;;;5047386;28;20425;-85
2023/01/02 03:03:29;;;;;;;8.27;5.07;;;12.50;99.90;;;;;;5030150;28;20463;-85
2023/01/02 03:06:17;;;;;;;8.25;5.13;;;12.60;99.90;;;;;;5046545;28;20470;-85
2023/01/02 03:08:55;;;;;;;8.18;5.18;;;12.50;99.90;;;;;;5047671;28;20376;-84
2023/01/02 03:11:31;;;;;;;9.43;5.38;;;12.60;99.90;;;;;;5050167;28;20415;-85
2023/01/02 03:14:09;;;;;;;8.77;5.50;;;12.50;99.90;;;;;;5033846;28;20407;-84
2023/01/02 03:16:40;;;;;;;11.73;5.50;;;12.70;99.90;;;;;;5051233;28;20379;-85
2023/01/02 03:19:08;;;;;;;9.90;5.35;;;12.70;99.90;;;;;;5051337;28;20384;-84
2023/01/02 03:21:52;;;;;;;8.13;4.88;;;12.70;99.90;;;;;;5032625;28;20952;-85
2023/01/02 03:24:20;;;;;;;9.50;5.03;;;12.60;99.90;;;;;;5050732;28;20850;-84
2023/01/02 03:26:50;;;;;;;8.75;5.32;;;12.70;99.90;;;;;;5032819;28;20403;-84
2023/01/02 03:29:20;;;;;;;10.45;5.40;;;12.80;99.90;;;;;;5051296;28;20380;-85
2023/01/02 03:31:50;;;;;;;10.45;5.53;;;12.80;99.90;;;;;;5032565;28;20372;-85
2023/01/02 03:34:21;;;;;;;10.38;5.93;;;12.90;99.90;;;;;;5032560;28;20437;-84
2023/01/02 03:36:53;;;;;;;12.13;4.93;;;12.90;99.90;;;;;;5033284;28;20865;-85
2023/01/02 03:39:22;;;;;;;8.65;5.28;;;12.90;99.90;;;;;;5050880;28;20384;-86
2023/01/02 03:41:57;;;;;;;11.02;5.03;;;12.80;99.90;;;;;;5032118;28;20386;-85
2023/01/02 03:44:27;;;;;;;9.02;5.20;;;12.80;99.90;;;;;;5032762;28;20429;-85
2023/01/02 03:47:18;;;;;;;8.82;5.18;;;12.80;99.90;;;;;;5050239;28;20446;-85
2023/01/02 03:49:50;;;;;;;11.02;5.10;;;12.40;99.90;;;;;;5050509;28;20398;-84
2023/01/02 03:52:15;;;;;;;7.30;4.82;;;12.80;99.90;;;;;;5031996;28;20380;-86
2023/01/02 03:54:41;;;;;;;8.60;4.87;;;12.80;99.90;;;;;;5050731;28;20382;-85
2023/01/02 03:57:25;;;;;;;9.98;5.50;;;12.80;99.90;;;;;;5032350;28;20387;-85
2023/01/02 04:00:17;;;;;;;7.60;4.85;;;12.80;99.90;;;;;;5032816;28;20384;-85
2023/01/02 04:03:30;;;;;;;6.72;4.80;;;12.80;99.90;;;;;;5049510;28;20388;-84
2023/01/02 04:06:06;;;;;;;7.97;4.97;;;12.90;99.90;;;;;;4952315;28;20433;-85
2023/01/02 04:08:44;;;;;;;9.10;5.30;;;13.10;99.90;;;;;;5038545;28;20428;-85
2023/01/02 04:11:14;;;;;;;10.90;5.38;;;13.10;99.90;;;;;;5050499;28;20407;-84
2023/01/02 04:13:53;;;;;;;8.90;5.10;;;13.00;99.90;;;;;;5050289;28;20922;-85
2023/01/02 04:16:23;;;;;;;9.25;5.22;;;13.10;99.90;;;;;;5051499;28;20926;-84
2023/01/02 04:19:31;;;;;;;8.15;4.85;;;13.00;99.90;;;;;;5051540;28;20387;-85
2023/01/02 04:22:01;;;;;;;9.88;5.00;;;13.10;99.90;;;;;;5047949;28;20384;-84
2023/01/02 04:24:32;;;;;;;6.50;4.67;;;12.70;99.90;;;;;;5049704;28;20862;-85
2023/01/02 04:27:13;;;;;;;8.63;5.30;;;13.20;99.90;;;;;;5048755;28;20422;-85
2023/01/02 04:29:39;;;;;;;7.70;4.95;;;13.20;99.90;;;;;;5050106;28;20928;-86
2023/01/02 04:32:18;;;;;;;9.23;4.90;;;13.20;99.90;;;;;;5049606;28;20371;-85
2023/01/02 04:34:46;;;;;;;6.13;4.78;;;13.30;99.90;;;;;;5048775;28;20671;-86
2023/01/02 04:37:26;;;;;;;7.80;5.00;;;13.20;99.90;;;;;;5049545;28;20870;-85
2023/01/02 04:39:55;;;;;;;6.93;4.45;;;13.30;99.90;;;;;;5049604;28;20494;-86
2023/01/02 04:42:21;;;;;;;7.97;5.07;;;13.20;99.90;;;;;;5048511;28;20905;-86
2023/01/02 04:44:47;;;;;;;9.20;5.13;;;13.20;99.90;;;;;;5048039;28;20376;-86
2023/01/02 04:47:12;;;;;;;11.48;5.03;;;13.20;99.90;;;;;;5048028;28;21220;-85
2023/01/02 04:49:38;;;;;;;7.17;4.53;;;13.30;99.90;;;;;;5049706;28;20498;-86
2023/01/02 04:52:03;;;;;;;9.88;5.10;;;13.40;99.90;;;;;;5049235;28;20400;-85
2023/01/02 04:54:29;;;;;;;8.67;5.10;;;13.30;99.90;;;;;;5049601;28;20438;-85
2023/01/02 04:56:55;;;;;;;10.53;4.97;;;13.30;99.90;;;;;;5049506;28;20792;-83
2023/01/02 04:59:20;;;;;;;5.53;4.43;;;13.10;99.90;;;;;;5049740;28;20426;-84
2023/01/02 05:01:46;;;;;;;7.83;5.40;;;13.40;99.90;;;;;;5048762;28;20384;-85
2023/01/02 05:04:12;;;;;;;7.03;4.63;;;13.30;99.90;;;;;;5047787;28;20381;-85
2023/01/02 05:06:37;;;;;;;8.37;4.90;;;13.50;99.90;;;;;;5049519;28;20395;-85
2023/01/02 05:09:03;;;;;;;7.75;4.95;;;13.40;99.90;;;;;;5049036;28;20406;-86
2023/01/02 05:11:29;;;;;;;8.23;4.77;;;13.00;99.90;;;;;;5048752;28;20883;-85
2023/01/02 05:13:54;;;;;;;6.97;4.70;;;13.40;99.90;;;;;;5048148;28;20403;-85
2023/01/02 05:16:20;;;;;;;7.40;5.03;;;13.40;99.90;;;;;;5048075;28;20734;-84
2023/01/02 05:18:46;;;;;;;7.80;5.03;;;13.50;99.90;;;;;;5047853;28;20399;-85
2023/01/02 05:23:58;;;;;;;6.93;4.82;;;13.60;99.90;;;;;;5049417;28;20919;-82
2023/01/02 05:26:25;;;;;;;9.02;4.90;;;13.60;99.90;;;;;;5049127;28;20456;-85
2023/01/02 05:28:52;;;;;;;6.20;4.32;;;13.60;99.90;;;;;;5047539;28;20376;-85
2023/01/02 05:31:17;;;;;;;5.53;4.63;;;13.70;99.90;;;;;;5046694;28;20384;-84
2023/01/02 05:33:43;;;;;;;8.70;4.87;;;13.70;99.90;;;;;;5047898;28;20375;-85
2023/01/02 05:36:09;;;;;;;7.72;5.15;;;13.70;99.90;;;;;;5048916;28;20414;-86
2023/01/02 05:38:35;;;;;;;8.23;4.68;;;13.70;99.90;;;;;;5048472;28;20383;-86
2023/01/02 05:41:06;;;;;;;7.30;4.45;;;13.70;99.90;;;;;;5046211;28;20410;-84
2023/01/02 05:43:33;;;;;;;9.10;4.88;;;13.70;99.90;;;;;;5048204;28;20392;-86
2023/01/02 05:46:14;;;;;;;5.45;4.18;;;13.70;99.90;;;;;;5048525;28;20379;-84
2023/01/02 05:48:41;;;;;;;6.80;4.25;;;13.70;99.90;;;;;;5046779;28;20890;-84
2023/01/02 05:51:09;;;;;;;6.65;4.47;;;13.70;99.90;;;;;;5047829;28;20368;-86
2023/01/02 05:53:35;;;;;;;6.43;4.43;;;13.60;99.90;;;;;;5049015;28;20379;-85
2023/01/02 05:56:08;;;;;;;4.73;4.13;;;13.60;99.90;;;;;;5046889;28;20459;-86
2023/01/02 05:58:35;;;;;;;6.53;4.38;;;13.60;99.90;;;;;;5047143;28;20382;-84
2023/01/02 06:01:13;;;;;;;6.43;4.20;;;13.60;99.90;;;;;;5047871;28;20376;-85
2023/01/02 06:03:39;;;;;;;5.93;4.15;;;13.40;99.90;;;;;;5048319;28;20433;-85
2023/01/02 06:06:06;;;;;;;7.00;4.40;;;13.60;99.90;;;;;;5048582;28;20372;-85
2023/01/02 06:08:32;;;;;;;6.35;4.05;;;13.60;99.90;;;;;;5046882;28;20399;-85
2023/01/02 06:10:58;;;;;;;6.13;3.83;;;13.70;99.90;;;;;;5045999;28;20381;-85
2023/01/02 06:13:24;;;;;;;9.40;4.13;;;13.60;99.90;;;;;;5046811;28;20422;-84
2023/01/02 06:15:50;;;;;;;8.80;4.32;;;13.60;99.90;;;;;;5047245;28;20960;-85
2023/01/02 06:18:16;;;;;;;7.13;4.07;;;13.80;99.90;;;;;;5046823;28;20397;-85
2023/01/02 06:20:42;;;;;;;6.13;4.03;;;13.70;99.90;;;;;;5048289;28;20382;-83
2023/01/02 06:23:07;;;;;;;6.43;4.33;;;13.80;99.90;;;;;;5048802;28;20458;-84
2023/01/02 06:25:33;;;;;;;5.22;3.67;;;13.80;99.90;;;;;;5048033;28;20376;-84
2023/01/02 06:27:59;;;;;;;6.45;4.20;;;13.80;99.90;;;;;;5047420;28;20782;-83
2023/01/02 06:30:25;;;;;;;8.90;4.20;;;13.80;99.90;;;;;;5048187;28;20478;-85
2023/01/02 06:32:50;;;;;;;6.20;4.45;;;13.80;99.90;;;;;;5046680;28;20380;-83
2023/01/02 06:35:16;;;;;;;8.45;4.72;;;13.80;99.90;;;;;;5048314;28;20386;-84
2023/01/02 06:37:43;;;;;;;6.40;4.17;;;13.80;99.90;;;;;;5048661;28;20434;-85
2023/01/02 06:40:09;;;;;;;8.25;4.30;;;13.90;99.90;;;;;;5047349;28;20372;-85
2023/01/02 06:42:35;;;;;;;6.35;3.75;;;13.90;99.90;;;;;;5046311;28;20392;-85
2023/01/02 06:45:01;;;;;;;6.65;3.67;;;14.00;99.90;;;;;;5048240;28;20777;-83
2023/01/02 06:47:26;;;;;;;7.50;4.17;;;13.90;99.90;;;;;;5052209;28;20407;-84
2023/01/02 06:49:52;;;;;;;6.38;3.90;;;13.90;99.90;;;;;;5052191;28;20384;-83
2023/01/02 06:52:18;;;;;;;5.50;3.75;;;13.90;99.90;;;;;;5050080;28;20376;-84
2023/01/02 06:54:43;;;;;;;6.00;3.97;;;13.90;99.90;;;;;;5051548;28;20437;-84
2023/01/02 06:57:09;;;;;;;6.38;3.97;;;13.90;99.90;;;;;;5050126;28;20448;-84
2023/01/02 06:59:35;;;;;;;8.73;4.40;;;13.90;99.90;;;;;;5051757;28;20462;-84
2023/01/02 07:02:00;;;;;;;7.20;3.90;;;13.90;99.90;;;;;;5051151;28;20934;-85
2023/01/02 07:04:26;;;;;;;7.30;4.18;;;13.90;99.90;;;;;;5051443;28;20391;-85
2023/01/02 07:06:52;;;;;;;6.20;4.13;;;13.80;99.90;;;;;;5049937;28;20518;-85
2023/01/02 07:09:18;;;;;;;6.88;3.88;;;13.90;99.90;;;;;;5051305;28;20382;-84
2023/01/02 07:11:43;;;;;;;6.87;3.73;;;13.80;99.90;;;;;;5049038;28;20453;-84
2023/01/02 07:14:09;;;;;;;8.35;4.05;;;13.80;99.90;;;;;;5050295;28;20470;-86
2023/01/02 07:16:35;;;;;;;6.85;3.60;;;13.80;99.90;;;;;;5049585;28;20390;-84
2023/01/02 07:19:00;;;;;;;6.33;3.80;;;13.90;99.90;;;;;;5051506;28;20727;-85
2023/01/02 07:21:26;;;;;;;6.95;3.90;;;13.90;99.90;;;;;;5049268;28;20372;-86
2023/01/02 07:23:52;;;;;;;6.93;3.67;;;13.80;99.90;;;;;;5051248;28;20849;-84
2023/01/02 07:26:20;;;;;;;9.07;3.78;;;13.90;99.90;;;;;;5050900;28;20410;-84
2023/01/02 07:28:46;;;;;;;5.68;3.53;;;14.00;99.90;;;;;;5050833;28;20375;-86
2023/01/02 07:31:15;;;;;;;7.63;3.60;;;14.10;99.90;;;;;;5048901;28;20382;-85
2023/01/02 07:33:41;;;;;;;7.03;4.03;;;14.10;99.90;;;;;;5050511;28;20447;-84
2023/01/02 07:36:11;;;;;;;9.07;3.55;;;14.10;99.90;;;;;;5050639;28;20376;-85
2023/01/02 07:38:38;;;;;;;6.60;3.72;;;14.10;99.90;;;;;;5051167;28;20380;-84
2023/01/02 07:41:14;;;;;;;8.83;3.70;;;14.10;99.90;;;;;;5050771;28;20394;-84
2023/01/02 07:43:40;;;;;;;8.05;3.67;;;14.00;99.90;;;;;;5050437;28;20384;-85
2023/01/02 07:46:05;;;;;;;7.80;3.70;;;14.00;99.90;;;;;;5050828;28;20872;-83
2023/01/02 07:48:31;;;;;;;6.60;3.47;;;14.10;99.90;;;;;;5049457;28;20874;-85
2023/01/02 07:51:01;;;;;;;6.70;3.67;;;14.10;99.90;;;;;;5050125;28;20380;-84
2023/01/02 07:53:27;;;;;;;9.53;4.00;;;14.10;99.90;;;;;;5051418;28;20414;-85
2023/01/02 07:55:57;;;;;;;7.28;3.72;;;14.20;99.90;;;;;;5050842;28;20437;-83
2023/01/02 07:58:23;;;;;;;7.90;3.47;;;14.20;99.90;;;;;;5051726;28;20368;-84
2023/01/02 08:00:49;;;;;;;5.78;3.28;;;14.20;99.90;;;;;;5049648;28;20510;-87
2023/01/02 08:03:15;;;;;;;8.63;3.37;;;14.30;99.90;;;;;;5051772;28;20376;-84
2023/01/02 08:05:41;;;;;;;6.50;3.53;;;14.30;99.90;;;;;;5053167;28;20372;-84
2023/01/02 08:08:07;;;;;;;7.15;3.25;;;14.30;99.90;;;;;;5054546;28;20401;-85
2023/01/02 08:10:34;;;;;;;9.98;3.80;;;14.40;99.90;;;;;;5071382;28;20377;-83
2023/01/02 08:13:00;;;;;;;9.25;3.85;;;14.30;99.90;;;;;;5054332;28;20398;-86
2023/01/02 08:15:26;;;;;;;8.10;3.22;;;14.30;99.90;;;;;;5071517;28;20374;-84
2023/01/02 08:17:51;;;;;;;8.93;3.60;;;14.40;99.90;;;;;;5072118;28;20374;-83
2023/01/02 08:20:17;;;;;;;8.68;4.10;;;14.60;99.90;;;;;;5071968;28;20462;-84
2023/01/02 08:22:43;;;;;;;6.00;3.40;;;14.50;99.90;;;;;;5053066;28;20888;-84
2023/01/02 08:25:09;;;;;;;6.45;3.42;;;14.40;99.90;;;;;;5053477;28;20884;-83
2023/01/02 08:27:35;;;;;;;7.30;3.78;;;14.50;99.90;;;;;;5070549;28;20398;-84
2023/01/02 08:30:01;;;;;;;15.35;7.97;;;14.50;99.90;;;;;;5070025;28;20377;-84
2023/01/02 08:32:27;;;;;;;14.63;8.18;;;14.60;99.90;;;;;;5068877;28;20402;-83
2023/01/02 08:34:53;;;;;;;16.03;10.20;;;14.50;99.90;;;;;;5040616;28;20397;-84
2023/01/02 08:37:18;;;;;;;9.02;4.22;;;14.50;99.90;;;;;;5061510;28;20413;-84
2023/01/02 08:39:44;;;;;;;9.50;4.40;;;14.60;99.90;;;;;;5068795;28;20813;-84
2023/01/02 08:42:11;;;;;;;8.40;3.40;;;14.60;99.90;;;;;;5051719;28;20386;-84
2023/01/02 08:44:37;;;;;;;6.37;3.33;;;14.70;99.90;;;;;;5069319;28;20382;-84
2023/01/02 08:47:04;;;;;;;7.50;3.80;;;14.70;99.90;;;;;;5052358;28;20455;-84
2023/01/02 08:49:29;;;;;;;8.82;3.88;;;14.80;99.90;;;;;;5051811;28;20473;-85
2023/01/02 08:51:55;;;;;;;7.00;3.50;;;14.90;99.90;;;;;;5052898;28;20476;-85
2023/01/02 08:54:21;;;;;;;10.57;3.38;;;14.90;99.90;;;;;;5070163;28;20412;-83
2023/01/02 08:56:47;;;;;;;8.47;3.77;;;15.00;99.90;;;;;;5068882;28;20674;-83
2023/01/02 08:59:13;;;;;;;8.05;3.20;;;15.00;99.90;;;;;;5049260;28;20396;-83
2023/01/02 09:01:39;;;;;;;9.48;3.40;;;15.00;99.90;;;;;;5067451;28;20370;-87
2023/01/02 09:04:07;;;;;;;9.30;3.40;;;15.00;99.90;;;;;;5051940;28;20440;-84
2023/01/02 09:06:35;;;;;;;6.93;3.40;;;15.00;99.90;;;;;;5067260;28;20865;-83
2023/01/02 09:09:01;;;;;;;9.50;3.53;;;15.10;99.90;;;;;;5066450;28;20749;-83
2023/01/02 09:11:35;;;;;;;7.47;3.30;;;15.20;99.90;;;;;;5071186;28;20421;-86
2023/01/02 09:14:02;;;;;;;7.72;3.20;;;15.20;99.90;;;;;;5069164;28;20382;-84
2023/01/02 09:16:29;;;;;;;9.15;4.70;;;15.20;99.90;;;;;;5069718;28;20694;-86
2023/01/02 09:18:56;;;;;;;8.63;4.70;;;15.30;99.90;;;;;;5070136;28;20371;-85
2023/01/02 09:21:22;;;;;;;6.78;3.25;;;15.30;99.90;;;;;;5053814;28;20710;-85
2023/01/02 09:23:47;;;;;;;10.03;3.37;;;15.30;99.90;;;;;;5069937;28;20400;-84
2023/01/02 09:26:13;;;;;;;7.28;3.10;;;15.30;99.90;;;;;;5072512;28;20370;-85
2023/01/02 09:28:42;;;;;;;7.30;2.90;;;15.30;99.90;;;;;;5072161;28;20868;-84
2023/01/02 09:31:11;;;;;;;10.77;3.30;;;15.40;99.90;;;;;;5062390;28;20453;-84
2023/01/02 09:33:38;;;;;;;5.93;3.33;;;15.40;99.90;;;;;;5031799;28;20443;-85
2023/01/02 09:36:06;;;;;;;8.00;3.28;;;15.50;99.90;;;;;;5032588;28;20509;-84
2023/01/02 09:38:32;;;;;;;6.47;3.28;;;15.50;99.90;;;;;;5030953;28;20372;-85
2023/01/02 09:41:01;;;;;;;8.30;3.28;;;15.60;99.90;;;;;;5030610;28;20380;-84
2023/01/02 09:43:31;;;;;;;8.37;3.20;;;15.60;99.90;;;;;;5030927;28;20375;-87
2023/01/02 09:46:00;;;;;;;8.63;3.35;;;15.70;99.90;;;;;;5048073;28;20509;-85
2023/01/02 09:48:31;;;;;;;7.75;3.10;;;15.60;99.90;;;;;;5048231;28;20928;-85
2023/01/02 09:50:57;;;;;;;9.13;3.47;;;15.50;99.90;;;;;;5029743;28;20380;-86
2023/01/02 09:53:24;;;;;;;6.70;3.00;;;15.50;99.90;;;;;;5046978;28;20396;-86
2023/01/02 09:56:15;;;;;;;9.57;3.40;;;15.60;99.90;;;;;;5049717;28;20376;-88
2023/01/02 09:59:05;;;;;;;6.23;2.97;;;15.70;99.90;;;;;;5032548;28;20379;-86
2023/01/02 10:01:58;;;;;;;10.43;3.63;;;15.60;99.90;;;;;;5030996;28;20410;-86
2023/01/02 10:04:42;;;;;;;7.30;2.70;;;15.60;99.90;;;;;;5031507;28;20475;-87
2023/01/02 10:07:36;;;;;;;6.20;2.80;;;15.60;99.90;;;;;;5030890;28;20404;-86
2023/01/02 10:10:20;;;;;;;7.32;2.95;;;15.50;99.90;;;;;;5009978;28;20413;-84
2023/01/02 10:13:20;;;;;;;11.05;3.15;;;15.60;99.90;;;;;;5030950;28;20873;-84
2023/01/02 10:15:50;;;;;;;9.55;3.20;;;15.50;99.90;;;;;;5030834;28;20386;-85
2023/01/02 10:18:28;;;;;;;9.90;3.73;;;15.50;99.90;;;;;;5031908;28;20414;-85
2023/01/02 10:21:02;;;;;;;6.33;3.07;;;15.60;99.90;;;;;;5049494;28;20422;-82
2023/01/02 10:24:00;;;;;;;6.83;3.13;;;15.50;99.90;;;;;;5034618;28;20452;-85
2023/01/02 10:26:40;;;;;;;7.30;2.85;;;15.40;99.90;;;;;;5034801;28;20486;-86
2023/01/02 10:29:19;;;;;;;6.65;2.90;;;15.50;99.90;;;;;;5034219;28;20390;-86
2023/01/02 10:32:01;;;;;;;6.07;3.15;;;15.40;99.90;;;;;;5051243;28;20465;-86
2023/01/02 10:34:46;;;;;;;5.72;3.00;;;15.50;99.90;;;;;;5052598;28;20399;-86
2023/01/02 10:37:14;;;;;;;7.10;2.95;;;15.50;99.90;;;;;;5054956;28;22487;-85
2023/01/02 10:39:45;;;;;;;7.80;3.17;;;15.50;99.90;;;;;;5043522;28;20374;-86
2023/01/02 10:42:13;;;;;;;7.32;2.90;;;15.50;99.90;;;;;;5035838;28;20785;-86
2023/01/02 10:44:40;;;;;;;9.48;3.40;;;15.40;99.90;;;;;;5053778;28;20490;-85
2023/01/02 10:47:34;;;;;;;9.00;3.70;;;15.50;99.90;;;;;;5051664;28;20406;-85
2023/01/02 10:50:02;;;;;;;9.25;3.50;;;15.50;99.90;;;;;;5032493;28;20403;-87
2023/01/02 10:52:51;;;;;;;8.20;3.33;;;15.50;99.90;;;;;;5033267;28;20399;-85
2023/01/02 10:55:43;;;;;;;8.10;3.20;;;15.50;99.90;;;;;;5050101;28;20917;-85
2023/01/02 10:58:16;;;;;;;6.82;3.00;;;15.50;99.90;;;;;;5023850;28;20411;-85
2023/01/02 11:00:42;;;;;;;9.85;3.67;;;15.50;99.90;;;;;;5031030;28;20939;-85
2023/01/02 11:03:15;;;;;;;8.15;3.00;;;15.50;99.90;;;;;;5027734;28;20406;-83
2023/01/02 11:05:53;;;;;;;8.75;3.20;;;15.40;99.90;;;;;;5048819;28;20498;-86
2023/01/02 11:08:33;;;;;;;6.75;2.88;;;15.40;99.90;;;;;;5051696;28;20399;-86
2023/01/02 11:11:00;;;;;;;7.95;3.30;;;15.40;99.90;;;;;;5031625;28;20391;-87
2023/01/02 11:13:42;;;;;;;6.93;3.45;;;15.30;99.90;;;;;;5033177;28;20399;-86
2023/01/02 11:16:08;;;;;;;6.93;3.40;;;15.30;99.90;;;;;;5048857;28;20493;-85
2023/01/02 11:18:36;;;;;;;9.57;3.90;;;15.20;99.90;;;;;;5050915;28;20403;-84
2023/01/02 11:21:03;;;;;;;6.72;3.17;;;15.30;99.90;;;;;;5051134;28;20380;-85
2023/01/02 11:23:41;;;;;;;8.13;3.70;;;15.40;99.90;;;;;;5030279;28;20399;-86
2023/01/02 11:26:19;;;;;;;8.18;3.58;;;15.40;99.90;;;;;;5044367;28;20893;-84
2023/01/02 11:28:48;;;;;;;9.82;3.53;;;15.50;99.90;;;;;;5032514;28;20909;-85
2023/01/02 11:31:15;;;;;;;6.68;2.95;;;15.40;99.90;;;;;;5030079;28;20400;-85
2023/01/02 11:33:42;;;;;;;10.18;3.08;;;15.40;99.90;;;;;;5049755;28;20422;-86
2023/01/02 11:36:10;;;;;;;8.15;3.20;;;15.30;99.90;;;;;;5048962;28;20396;-87
2023/01/02 11:38:55;;;;;;;7.63;3.25;;;15.50;99.90;;;;;;5037044;28;20893;-86
2023/01/02 11:44:27;;;;;;;9.15;3.28;;;15.50;99.90;;;;;;5049672;28;20415;-85
2023/01/02 11:46:54;;;;;;;6.47;3.03;;;15.50;99.90;;;;;;5049003;28;20499;-85
2023/01/02 11:49:33;;;;;;;10.30;2.97;;;15.50;99.90;;;;;;5032968;28;20545;-86
2023/01/02 11:52:04;;;;;;;10.18;3.47;;;15.60;99.90;;;;;;5032370;28;20388;-86
2023/01/02 11:54:38;;;;;;;8.63;3.20;;;15.50;99.90;;;;;;5047237;28;20399;-86
2023/01/02 11:57:14;;;;;;;8.90;3.35;;;15.60;99.90;;;;;;5047199;28;20435;-87
2023/01/02 11:59:46;;;;;;;9.93;3.33;;;15.60;99.90;;;;;;5049077;28;20388;-86
2023/01/02 12:02:43;;;;;;;11.40;3.35;;;15.50;99.90;;;;;;5050073;28;20455;-85
2023/01/02 12:05:24;;;;;;;8.63;3.67;;;15.50;99.90;;;;;;5024836;28;20380;-84
2023/01/02 12:08:00;;;;;;;8.30;3.10;;;15.50;99.90;;;;;;5050348;28;20402;-85
2023/01/02 12:10:42;;;;;;;7.78;2.95;;;15.40;99.90;;;;;;5046835;28;20473;-84
2023/01/02 12:13:22;;;;;;;10.20;3.35;;;15.30;99.90;;;;;;5032535;28;20778;-86
2023/01/02 12:16:07;;;;;;;7.67;3.10;;;15.20;99.90;;;;;;5049813;28;20390;-88
2023/01/02 12:19:07;;;;;;;10.80;3.25;;;15.20;99.90;;;;;;5049153;28;20396;-87
2023/01/02 12:21:59;;;;;;;9.45;3.13;;;15.10;99.90;;;;;;5028542;28;20511;-86
2023/01/02 12:25:06;;;;;;;7.40;3.00;;;15.20;99.90;;;;;;5050601;28;20405;-85
2023/01/02 12:27:38;;;;;;;10.18;3.63;;;15.10;99.90;;;;;;4996351;28;20817;-86
2023/01/02 12:30:18;;;;;;;9.80;3.40;;;15.10;99.90;;;;;;5034445;28;20384;-86
2023/01/02 12:32:50;;;;;;;8.25;3.53;;;15.10;99.90;;;;;;5048626;28;21236;-84
2023/01/02 12:35:49;;;;;;;10.25;3.50;;;15.20;99.90;;;;;;5045208;28;20414;-86
2023/01/02 12:38:42;;;;;;;8.52;3.08;;;15.10;99.90;;;;;;5028791;28;20380;-86
2023/01/02 12:41:23;;;;;;;7.57;2.83;;;15.10;99.90;;;;;;5032272;28;20428;-87
2023/01/02 12:44:07;;;;;;;6.57;3.03;;;15.20;99.90;;;;;;5032478;28;20474;-85
2023/01/02 12:46:53;;;;;;;9.75;3.63;;;15.20;99.90;;;;;;5022526;28;20407;-88
2023/01/02 12:49:21;;;;;;;10.00;3.25;;;15.30;99.90;;;;;;5040292;28;20959;-85
2023/01/02 12:52:18;;;;;;;10.38;2.97;;;15.40;99.90;;;;;;5043528;28;20405;-86
2023/01/02 12:55:08;;;;;;;9.07;3.10;;;15.50;99.90;;;;;;5013540;28;20384;-84
2023/01/02 12:57:56;;;;;;;9.07;3.00;;;15.50;99.90;;;;;;5039892;28;20373;-86
2023/01/02 13:00:31;;;;;;;9.60;3.17;;;15.50;99.90;;;;;;5022262;28;20571;-86
2023/01/02 13:03:21;;;;;;;7.75;3.30;;;15.50;99.90;;;;;;5043305;28;20402;-86
2023/01/02 13:06:16;;;;;;;7.20;2.83;;;15.50;99.90;;;;;;5040611;28;20886;-87
2023/01/02 13:09:09;;;;;;;8.60;3.38;;;15.60;99.90;;;;;;5015088;28;20880;-86
2023/01/02 13:11:58;;;;;;;8.20;3.13;;;15.50;99.90;;;;;;5020333;28;20396;-85
2023/01/02 13:14:35;;;;;;;9.05;3.13;;;15.60;99.90;;;;;;5039452;28;20384;-88